Portada
METAR-TAF:

METAR-TAF

Aeroports :

Nukus, Uzbekistan

latitud: 42-28-48N, longitud: 059-37-48E, altitud: 77 m

Observació

L'informe es va fer fa 31 minuts, a les 22:30 UTC
Vent 4 kt del Sud/Sud-Est
Temperatura 11°C
Humitat 66%
Pressió 1015 hPa
Visibilitat 10 km o més
sense núvols per sota de 1500 mi sense presència de cumulonimbus.

METAR: UTNN 012230Z 16004KT CAVOK 11/05 Q1015 R33/CLRD60 NOSIG

Hora: 04:01 (23:01 UTC)

Pronòstic

L'informe es va fer fa 6 hores i 1 minuts, a les 17:00 UTC
Pronòstic vàlid del 01 a les 18 UTC al 02 a les 18 UTC
Vent 4 kt amb direcció variable
Visibilitat 10 km o més
sense núvols per sota de 1500 mi sense presència de cumulonimbus.
Temporalment
l' 01 a les 18 UTC al 01 a les 24 UTC
Vent 6 kt del Sud

TAF: UTNN 011700Z 0118/0218 VRB04KT CAVOK TEMPO 0118/0124 18006KT

Observacions i pronòstics meteorològics de més de 4000 aeroports (METAR i TAF).

Les estacions disponibles són els punts grocs i vermells al mapa.

Posi el ratolí al punt desitjat per veure el nom de l'estació.

Feu clic per veure les observacions i els pronòstics meteorològics.

Per canviar el mapa: feu clic els botons verds amb una creu de color negre per apropar; al botó verd amb un guió per allunyar la imatge; o en les fletxes verdes per a mapes adjacents.


METAR-TAF: